Overall Results: 5k

Place Bib First Last Sex Age Div City State Gun
Time
Net
Time
Pace Sex
Place
Sex
Total
Div
Place
Div
Total
1 1151 Brian Llamas M 26 M2029 Boulder CO 16:15.6 16:15.5 5:14 1 641 1 129
2 812 Alejandro Garcia M 25 M2029 Pine Bluffs WY 16:22.8 16:21.5 5:17 2 641 2 129
3 1917 Shawn Lindbom M 30 M3039 Wiggins CO 16:35.8 16:34.7 5:21 3 641 1 93
4 1976 Josef Gertner M 24 M2029 Fort Morgan CO 16:48.6 16:44.5 5:25 4 641 3 129
5 829 Hermon Gebrehiwot M 16 M1319 Greeley CO 17:37.9 17:34.8 5:41 5 641 1 58
6 1683 Daniel Torres M 22 M2029 Greeley CO 17:51.3 17:51.2 5:45 6 641 4 129
7 860 Daniel Goding M 43 M4049 Loveland CO 18:10.5 18:09.1 5:51 7 641 1 93
8 1524 Chris Schroeder M 24 M2029 Longmont CO 18:50.0 18:49.9 6:04 8 641 5 129
9 353 Eyob Admassu M 16 M1319 Greeley CO 19:01.9 18:58.6 6:08 9 641 2 58
10 671 Luke Duggan M 22 M2029 Grover CO 19:05.3 19:00.5 6:09 10 641 6 129
11 72 Nate Grimm M 27 M2029 Greeley CO 19:10.7 19:09.0 6:11 11 641 7 129
12 73 Chad Bosel M 25 M2029 Ft. Collins CO 19:10.7 19:09.0 6:11 12 641 8 129
13 2037 Raul Carriza Carrizalez Raul M 58 M5059 Evans CO 19:14.2 19:14.1 6:12 13 641 1 99
14 360 Jeff Albert M 37 M3039 Windsor CO 19:20.2 19:18.8 6:14 14 641 2 93
15 2111 Raceday Registration 19:23.4 19:23.4 6:15
16 2092 Morgan Hykes F 18 F1619 Greeley CO 19:25.4 19:24.3 6:16 1 818 1 47
17 1346 Kevin Palmer M 44 M4049 Boulder CO 19:49.7 19:49.7 6:23 15 641 2 93
18 2044 Bret Naber M 41 M4049 Greeley CO 19:57.8 19:57.7 6:26 16 641 3 93
19 816 Brayden Garrott M 17 M1319 Greeley CO 19:58.6 19:55.2 6:26 17 641 3 58
20 1942 Ismael Ochoa M 20 M2029 Evans CO 20:03.9 19:35.8 6:28 18 641 9 129
21 976 Gareth Hopwood M 15 M1315 Cedar Park TX 20:06.1 19:58.6 6:29 19 641 1 43
22 1720 Ramon Villalobos M 18 M1319 Greeley CO 20:19.0 20:18.9 6:33 20 641 4 58
23 1675 Nick Thomas M 17 M1319 Greeley CO 20:20.1 20:17.9 6:33 21 641 5 58
24 2052 Jared Durney M 22 M2029 Provo UT 20:24.7 20:17.5 6:35 22 641 10 129
25 1099 Cadence Lapp F 16 F1619 Loveland CO 20:25.6 20:25.5 6:35 2 818 2 47
26 74 Michael Kallsen M 36 M3039 Greeley CO 20:29.9 6:36 23 641 3 93
27 1927 Joseph Price M 17 M1319 Greeley CO 20:32.0 20:31.9 6:37 24 641 6 58
28 516 Chris Buhler M 26 M2029 Greeley CO 20:35.3 20:33.0 6:38 25 641 11 129
29 1017 Lara Johnson F 38 F3039 Boulder CO 20:36.8 20:34.6 6:39 3 818 1 172
30 1673 Dylan Thomas M 17 M1319 Greeley CO 20:40.2 20:37.3 6:40 26 641 7 58
31 1767 Kurt Wienke M 18 M1319 Greeley CO 20:43.8 20:41.3 6:41 27 641 8 58
32 167 Justin Carter M 37 M3039 Greeley CO 20:48.7 20:41.6 6:42 28 641 4 93
33 1076 Zachary Koch M 23 M2029 Greeley CO 20:59.2 20:59.1 6:46 29 641 12 129
34 883 Nicholas Gremley M 31 M3039 Greeley CO 21:01.8 20:57.7 6:47 30 641 5 93
35 1167 Jorge MacEdo M 43 M4049 Greeley CO 21:11.5 21:09.4 6:50 31 641 4 93
36 449 Carson Blair M 34 M3039 Greeley CO 21:15.7 21:13.8 6:51 32 641 6 93
37 917 Matt Harbert M 27 M2029 Denver CO 21:20.2 21:13.8 6:53 33 641 13 129
38 1194 Cole Mazurana M 12 M0112 Windsor CO 21:22.4 21:22.4 6:53 34 641 1 61
39 362 Caitlin Alexander F 30 F3039 Boulder CO 21:26.5 21:23.7 6:55 4 818 2 172
40 1568 Daryan Shaw M 11 M0112 Timnath CO 21:26.6 21:26.5 6:55 35 641 2 61
41 916 Mariah Harbert F 26 F2029 Denver CO 21:27.3 21:21.5 6:55 5 818 1 179
42 436 Doug Bell M 69 M6069 Greeley CO 21:30.0 21:29.9 6:56 36 641 1 48
43 1050 Andrew King M 20 M2029 Kersey CO 21:33.0 21:06.0 6:57 37 641 14 129
44 1052 Gabriel King M 17 M1319 Kersey CO 21:33.3 21:07.8 6:57 38 641 9 58
45 349 Raceday Registration 21:41.2 21:38.8 6:59
46 1308 Alejandro Ojeda M 23 M2029 Greeley CO 21:43.9 21:33.6 7:00 39 641 15 129
47 2149 Raceday Registration 21:51.0 21:50.9 7:02
48 79 Rick Denning M 58 M5059 Greeley CO 22:02.5 21:58.2 7:06 40 641 2 99
49 2159 Raceday Registration 22:15.8 22:15.7 7:10
50 1345 Cassandra Palmer F 37 F3039 Englewood CO 22:20.8 22:17.6 7:12 6 818 3 172
51 1768 Jeff Wiley M 42 M4049 Greeley CO 22:25.6 22:24.4 7:14 41 641 5 93
52 1913 Jed Sidwell M 17 M1319 Gill CO 22:28.8 22:17.2 7:15 42 641 10 58
53 2125 Raceday Registration 22:32.6 22:28.2 7:16
54 2108 Andy Jones M 51 M5059 Windsor CO 22:34.0 22:28.9 7:16 43 641 3 99
55 1445 Ethan Rios M 15 M1315 Serverance CO 22:37.1 22:37.1 7:17 44 641 2 43
56 1682 Michael Toews M 15 M1315 Greeley CO 22:45.2 22:35.9 7:20 45 641 3 43
57 1552 Cameron Segura M 28 M2029 Fort Collins CO 22:45.9 22:36.3 7:20 46 641 16 129
58 918 Nicholas Harman M 28 M2029 Greeley CO 22:48.4 22:37.4 7:21 47 641 17 129
59 1190 Zachary Martinez M 30 M3039 Greeley CO 23:01.3 22:57.0 7:25 48 641 7 93
60 128 Annaliez Palacios F 22 F2029 Greeley CO 23:02.5 22:56.1 7:25 7 818 2 179
61 519 Nina Buhler F 24 F2029 Greeley CO 23:05.6 23:03.0 7:26 8 818 3 179
62 3149 Aimee Kanode F 27 F2029 Fort Morgan CO 23:12.2 41:45.3 7:29 9 818 4 179
63 1369 Natasha Perales F 17 F1619 Greeley CO 23:19.0 23:15.9 7:31 10 818 3 47
64 1785 Taylor Ybarra M 26 M2029 Evans CO 23:24.1 22:56.6 7:32 49 641 18 129
65 517 Daniel Buhler M 22 M2029 Greeley CO 23:24.7 23:08.3 7:33 50 641 19 129
66 1820 Tanner McManus M 27 M2029 Greeley CO 23:25.3 22:59.1 7:33 51 641 20 129
67 2135 Raceday Registration 23:26.5 23:22.8 7:33
68 1229 Rich Michaelson M 62 M6069 Loveland CO 23:28.4 23:21.5 7:34 52 641 2 48
69 669 Fritz Duggan M 36 M3039 Grover CO 23:29.6 23:25.0 7:34 53 641 8 93
70 1925 Isaiah Campbell M 15 M1315 Greeley CO 23:32.4 23:23.4 7:35 54 641 4 43
71 345 Raceday Registration 23:33.4 22:02.6 7:35
72 528 Jenny Burns F 39 F3039 Boulder CO 23:34.5 23:30.9 7:36 11 818 4 172
73 1370 Tori Perales F 15 F1315 Greeley CO 23:35.9 23:32.6 7:36 12 818 1 39
74 1051 Christian King M 17 M1319 Kersey CO 23:39.8 23:14.7 7:37 55 641 11 58
75 365 Jeff Allen M 30 M3039 Windsor CO 23:41.6 23:19.3 7:38 56 641 9 93
76 670 Josh Duggan M 19 M1319 Grover CO 23:42.7 23:37.6 7:38 57 641 12 58
77 2035 Dylan Yancey M 18 M1319 Greeley CO 23:43.9 23:30.6 7:39 58 641 13 58
78 1071 Kohl Knutson M 27 M2029 Orchard CO 23:44.4 23:30.7 7:39 59 641 21 129
79 925 Kate Harvey F 15 F1315 Greeley CO 23:45.8 23:42.4 7:39 13 818 2 39
80 1059 Jacob Kisiolek M 25 M2029 Greeley CO 23:47.9 23:37.3 7:40 60 641 22 129
81 1478 Matthew Ronne M 38 M3039 Greeley CO 23:49.3 23:36.2 7:41 61 641 10 93
82 595 Jeff Cook M 45 M4049 Greeley CO 23:52.2 23:43.2 7:41 62 641 6 93
83 1038 Wehazit Kelati F 15 F1315 Greeley CO 23:52.6 23:50.7 7:42 14 818 3 39
84 2036 Lauren Frink F 18 F1619 Greeley CO 23:56.3 23:42.9 7:43 15 818 4 47
85 1546 Austin Scott M 30 M3039 Fort Collins CO 23:56.6 23:54.7 7:43 63 641 11 93
86 1830 Kenneth Dunn M 36 M3039 Greeley CO 23:59.3 23:57.3 7:44 64 641 12 93
87 500 Madison Brosig F 14 F1315 Greeley CO 24:01.7 23:56.7 7:45 16 818 4 39
88 2123 Raceday Registration 24:02.5 23:50.3 7:45
89 1291 Coehn Nitzel M 12 M0112 Greeley CO 24:07.9 24:04.7 7:47 65 641 3 61
90 1669 Emily Templeton F 39 F3039 New York CO 24:09.8 24:04.4 7:47 17 818 5 172
91 990 Eric Ikenouye M 43 M4049 Cortez CO 24:11.7 24:03.5 7:48 66 641 7 93
92 1705 Sammy Uyemura M 17 M1319 Wray CO 24:12.7 23:42.9 7:48 67 641 14 58
93 2124 Raceday Registration 24:15.1 7:49
94 698 Brandon Ewing M 23 M2029 Greeley CO 24:15.2 24:11.5 7:49 68 641 23 129
95 1367 John Perales M 11 M0112 Greeley CO 24:18.4 24:14.7 7:50 69 641 4 61
96 1098 Jill Lamb F 25 F2029 Eaton CO 24:23.3 24:17.3 7:51 18 818 5 179
97 270 Reece Lyons M 19 M1319 Greeley CO 24:25.1 24:12.9 7:52 70 641 15 58
98 268 Katie Lyons F 23 F2029 Greeley CO 24:30.8 24:18.6 7:54 19 818 6 179
99 70 Justin Gross M 24 M2029 Greeley CO 24:31.0 23:50.3 7:54 71 641 24 129
100 639 Chris Decker M 20 M2029 Greeley CO 24:33.6 24:17.4 7:55 72 641 25 129
101 638 Bryan Decker M 20 M2029 Greeley CO 24:33.7 24:18.3 7:55 73 641 26 129
102 4 Sami Angus F 17 F1619 Greeley CO 24:36.3 24:31.7 7:56 20 818 5 47
103 2114 Raceday Registration 24:37.1 24:32.5 7:56
104 76 Jim Fuller M 66 M6069 Greeley CO 24:38.1 24:35.2 7:56 74 641 3 48
105 964 Matthew Hoesch M 19 M1319 Evans CO 24:39.3 24:28.2 7:57 75 641 16 58
106 1801 Aaron Zimola M 23 M2029 Greeley CO 24:40.2 24:35.3 7:57 76 641 27 129
107 129 Zac Britton M 22 M2029 Greeley CO 24:40.9 24:33.9 7:57 77 641 28 129
108 1184 Mary Beth Martin F 21 F2029 Eaton CO 24:41.5 24:35.6 7:57 21 818 7 179
109 1914 Cal Sidwell M 13 M1315 Gill CO 24:48.3 24:36.0 8:00 78 641 5 43
110 1615 Finn Spring M 11 M0112 Louisville CO 24:49.4 24:40.7 8:00 79 641 5 61
111 975 Emily Hopwood F 22 F2029 Provo UT 24:51.5 24:43.5 8:01 22 818 8 179
112 1766 Kory Wienke M 16 M1319 Greeley CO 24:56.1 24:53.9 8:02 80 641 17 58
113 876 Quin Gregg F 15 F1315 Lyons CO 24:56.4 24:36.8 8:02 23 818 5 39
114 2085 Andrew Morrison M 27 M2029 Greeley CO 24:56.7 24:39.4 8:02 81 641 29 129
115 374 Lexi Angus F 15 F1315 Greeley CO 24:57.3 24:52.1 8:02 24 818 6 39
116 949 Jack Heppner M 14 M1315 Eaton CO 24:59.5 24:59.5 8:03 82 641 6 43
117 569 Zebediah Chavez M 15 M1315 Greeley CO 25:00.7 24:57.7 8:03 83 641 7 43
118 499 Cameron Brosig M 13 M1315 Greeley CO 25:04.7 24:59.1 8:05 84 641 8 43
119 1020 Tanner Johnson M 30 M3039 Greeley CO 25:05.7 24:34.2 8:05 85 641 13 93
120 1309 Denisse Ojeda F 20 F2029 Greeley CO 25:07.6 24:48.4 8:06 25 818 9 179
121 915 Avery Hanzlicek M 23 M2029 Windsor CO 25:08.7 24:40.2 8:06 86 641 30 129
122 1164 Brenda Lynch F 53 F5059 Greeley CO 25:10.0 25:08.1 8:06 26 818 1 132
123 3222 Lorenzo Raimer M 28 M2029 Greeley CO 25:12.1 24:56.6 8:07 87 641 31 129
124 1586 Steve Smart M 57 M5059 Peoria IL 25:14.3 24:58.7 8:08 88 641 4 99
125 686 Corey Eloe M 29 M2029 Greeley CO 25:17.3 24:15.9 8:09 89 641 32 129
126 1623 Anna Staves F 24 F2029 Kersey CO 25:22.7 25:13.6 8:11 27 818 10 179
127 1203 Kahl McDonald M 16 M1319 Eaton CO 25:24.8 25:13.6 8:11 90 641 18 58
128 661 Jonah Douville M 13 M1315 Severance CO 25:27.3 25:27.2 8:12 91 641 9 43
129 1396 Erin Priest F 30 F3039 Milliken CO 25:27.9 25:16.0 8:12 28 818 6 172
130 3001 Jerry Adams M 54 M5059 Greeley CO 25:34.0 25:31.0 8:14 92 641 5 99
131 1222 Stephanie Merrick F 28 F2029 Windsor CO 25:40.1 25:17.8 8:16 29 818 11 179
132 654 Greg Dixon M 10 M0112 Fort Collins CO 25:41.7 25:31.6 8:17 93 641 6 61
133 582 Paul Colasuonno M 28 M2029 Fort Collins CO 25:42.7 25:26.5 8:17 94 641 33 129
134 631 Kurt Dallow M 66 M6069 Greeley CO 25:47.6 25:44.5 8:19 95 641 4 48
135 69 Aubrey Plate F 11 F0112 Greeley CO 25:50.3 25:43.4 8:19 30 818 1 58
136 75 Jennifer Sedaghat F 43 F4049 Greeley CO 25:51.0 25:39.6 8:20 31 818 1 118
137 666 Rilea Driscoll F 20 F2029 Greeley CO 25:51.7 25:45.4 8:20 32 818 12 179
138 1202 Guy McDonald M 48 M4049 Eaton CO 25:52.1 25:41.3 8:20 96 641 8 93
139 819 Joshua Garrott M 14 M1315 Greeley CO 25:52.4 25:19.4 8:20 97 641 10 43
140 1742 Katie Weber F 24 F2029 Greeley CO 25:54.1 25:46.3 8:21 33 818 13 179
141 2109 Raceday Registration 25:56.2 24:53.2 8:21
142 720 Luke Figgs M 25 M2029 La Salle CO 25:57.6 25:48.8 8:22 98 641 34 129
143 1748 Kyra Weinbender F 14 F1315 Greeley CO 25:58.3 8:22 34 818 7 39
144 1747 Heather Weinbender F 45 F4049 Greeley CO 25:59.6 25:54.2 8:22 35 818 2 118
145 71 Brian Gross M 19 M1319 Greeley CO 26:01.5 25:20.1 8:23 99 641 19 58
146 1077 Brandon Koehler M 25 M2029 Windsor CO 26:04.1 25:32.6 8:24 100 641 35 129
147 1664 Kayden Tafoya F 15 F1315 Fort Collins CO 26:04.2 25:52.4 8:24 36 818 8 39
148 978 Julie Hoskins F 54 F5059 Greeley CO 26:05.8 25:59.0 8:24 37 818 2 132
149 1760 Caleb Whitaker M 25 M2029 Greeley CO 26:06.8 25:38.4 8:25 101 641 36 129
150 1597 Kirk Smith M 33 M3039 Greeley CO 26:08.7 8:25 102 641 14 93
151 356 Jeff Aguila M 38 M3039 Greeley CO 26:10.5 25:48.6 8:26 103 641 15 93
152 518 Mark Buhler M 55 M5059 Greeley CO 26:17.3 26:01.3 8:28 104 641 6 99
153 1923 Courtney Chacon F 25 F2029 Platteville CO 26:18.6 25:47.7 8:29 38 818 14 179
154 717 David Figgs M 19 M1319 Greeley CO 26:18.8 25:52.5 8:29 105 641 20 58
155 1858 Dan England M 48 M4049 Evans CO 26:23.4 26:16.3 8:30 106 641 9 93
156 3175 Diego Martinez M 21 M2029 Evans CO 26:24.5 26:18.4 8:30 107 641 37 129
157 1192 Achilles Matchers M 14 M1315 Greeley CO 26:27.3 25:08.8 8:31 108 641 11 43
158 1926 Amy Chacon F 31 F3039 Greeley CO 26:27.6 25:40.9 8:31 39 818 7 172
159 2045 Nathaniel Kronholm M 37 M3039 Milliken CO 26:28.8 25:43.3 8:32 109 641 16 93
160 434 Lawrence Belfiore M 16 M1319 Windsor CO 26:30.9 26:30.8 8:33 110 641 21 58
161 1588 Amanda Smith F 33 F3039 Greeley CO 26:37.8 25:49.7 8:35 40 818 8 172
162 218 Westen Pierce M 14 M1315 Greeley CO 26:40.1 26:22.7 8:35 111 641 12 43
163 2104 Quinten Stutler M 15 M1315 Greeley CO 26:43.9 26:28.6 8:37 112 641 13 43
164 1655 Aidan Swanson M 19 M1319 Greeley CO 26:45.1 25:41.1 8:37 113 641 22 58
165 290 Dave Zeigler M 45 M4049 Greeley CO 26:45.5 26:28.3 8:37 114 641 10 93
166 1837 Shanna Pratt F 51 F5059 Eaton CO 26:48.6 26:30.0 8:38 41 818 3 132
167 1209 Levi McKinney M 17 M1319 Johnstown CO 26:50.0 26:00.7 8:39 115 641 23 58
168 2084 Hector Rosales M 22 M2029 Greeley CO 26:52.9 26:21.5 8:40 116 641 38 129
169 2071 Andrew Riley M 36 M3039 Greeley CO 26:56.1 26:45.5 8:41 117 641 17 93
170 1263 Joseph Morgan M 30 M3039 Greeley CO 26:58.9 26:25.5 8:42 118 641 18 93
171 1862 Thomas Buckner M 40 M4049 Greeley CO 27:01.6 26:49.5 8:42 119 641 11 93
172 1128 Zefer Legesse F 15 F1315 Greeley CO 27:04.8 27:03.5 8:43 42 818 9 39
173 206 Ryan Thompson M 38 M3039 Longmont CO 27:04.9 26:45.2 8:43 120 641 19 93
174 338 Shelby Kinlund F 29 F2029 Denver CO 27:06.9 26:51.8 8:44 43 818 15 179
175 1679 Jesus Tijerina M 67 M6069 Greeley CO 27:07.1 26:57.9 8:44 121 641 5 48
176 1420 James Redmond M 28 M2029 Greeley CO 27:09.9 26:23.2 8:45 122 641 39 129
177 350 Raceday Registration 27:13.8 27:07.2 8:46
178 877 Shawn Gregg M 47 M4049 Lyons CO 27:14.2 26:54.8 8:46 123 641 12 93
179 2112 Raceday Registration 27:15.1 27:04.5 8:47
180 289 Ray Pfalzgraff M 45 M4049 Greeley CO 27:20.6 26:42.7 8:49 124 641 13 93
181 1710 Levi Vaniddekinge M 14 M1315 Greeley CO 27:21.9 26:48.6 8:49 125 641 14 43
182 1450 Cole Robb M 20 M2029 Greeley CO 27:23.8 26:43.6 8:50 126 641 40 129
183 1072 Paul Knutson M 57 M5059 Orchard CO 27:28.6 27:02.0 8:51 127 641 7 99
184 1271 Rachel Muth F 34 F3039 Greeley CO 27:29.2 8:51 44 818 9 172
185 994 Landon Jack M 31 M3039 Greeley CO 27:30.1 26:55.2 8:52 128 641 20 93
186 243 Zach Sorbo M 17 M1319 Greeley CO 27:32.3 26:49.0 8:52 129 641 24 58
187 1092 Joseph Labonde M 32 M3039 Greeley CO 27:39.9 27:24.5 8:55 130 641 21 93
188 1602 Randy Smith M 46 M4049 Eaton CO 27:46.3 27:33.8 8:57 131 641 14 93
189 1085 Dawson Kramer M 21 M2029 Greeley CO 27:47.7 27:31.2 8:57 132 641 41 129
190 1528 Jake Schuch M 29 M2029 Fort Collins CO 27:48.7 27:16.7 8:58 133 641 42 129
191 501 Adam Brown M 38 M3039 Greeley CO 27:50.2 27:23.3 8:58 134 641 22 93
192 818 John Garrott M 43 M4049 Greeley CO 27:50.9 27:50.9 8:58 135 641 15 93
193 2072 Korey Stephens M 29 M2029 Greeley CO 27:52.5 25:43.9 8:59 136 641 43 129
194 926 Tarry Harvey M 48 M4049 Greeley CO 27:54.5 27:46.1 8:59 137 641 16 93
195 371 William Andrus M 42 M4049 Denver CO 27:56.0 27:19.7 9:00 138 641 17 93
196 752 Ethan Flavin M 15 M1315 Windsor CO 27:56.1 27:09.9 9:00 139 641 15 43
197 1201 Ashley McDonald F 47 F4049 Eaton CO 27:58.5 27:47.0 9:01 45 818 3 118
198 348 Raceday Registration 27:58.6 27:30.2 9:01
199 34 Kody Gutierrez M 43 M4049 CO 27:59.8 27:52.4 9:01 140 641 18 93
200 1031 Kayla Kamada F 36 F3039 Windsor CO 28:01.5 27:15.9 9:02 46 818 10 172
201 112 Stephanie Garcia F 44 F4049 Greeley CO 28:02.0 27:26.6 9:02 47 818 4 118
202 1535 Keaton Schumacher M 26 M2029 Windsor CO 28:02.1 27:33.2 9:02 141 641 44 129
203 78 Jenny Weber F 62 F6069 Greeley CO 28:02.2 27:58.0 9:02 48 818 1 50
204 1217 Stacie Meek F 39 F3039 Greeley CO 28:03.1 27:00.6 9:02 49 818 11 172
205 780 Braeden Freier M 15 M1315 Greeley CO 28:07.5 27:06.2 9:04 142 641 16 43
206 2034 Kelsey Andrade F 28 F2029 Greeley CO 28:08.4 27:30.7 9:04 50 818 16 179
207 2050 Justin Roberts M 30 M3039 Greeley CO 28:10.8 28:06.4 9:05 143 641 23 93
208 3163 Aimee Ledall F 24 F2029 Greeley CO 28:12.8 27:50.9 9:05 51 818 17 179
209 1884 Alyssa Shepherd F 25 F2029 Greeley CO 28:13.7 27:32.3 9:06 52 818 18 179
210 748 Joshua Flatt M 16 M1319 Boulder CO 28:16.2 28:07.2 9:06 144 641 25 58
211 3242 Shawn Rothe M 11 M0112 Greeley CO 28:17.5 28:14.7 9:07 145 641 7 61
212 1994 Robbie Jack M 23 M2029 Loveland CO 28:17.7 27:41.0 9:07 146 641 45 129
213 3164 Brittany Ledall F 27 F2029 Greeley CO 28:18.6 27:57.2 9:07 53 818 19 179
214 1838 Sarah Pratt F 21 F2029 Boulder CO 28:18.8 27:59.7 9:07 54 818 20 179
215 3238 Hans Rodvik M 27 M2029 Greeley CO 28:19.0 27:56.8 9:07 147 641 46 129
216 1014 Jeff Johnson M 53 M5059 Severance CO 28:19.5 27:55.0 9:07 148 641 8 99
217 700 Garrett Fagerberg M 17 M1319 Greeley CO 28:24.0 28:17.4 9:09 149 641 26 58
218 1692 Catherine Trippett F 58 F5059 Evans CO 28:24.6 28:20.3 9:09 55 818 4 132
219 1680 Nicholas Tijerina M 12 M0112 Greeley CO 28:32.2 28:23.7 9:12 150 641 8 61
220 1516 Bronson Schafer M 17 M1319 Greeley CO 28:32.3 27:58.0 9:12 151 641 27 58
221 212 Tyler Delafuente M 27 M2029 Greeley CO 28:33.7 27:40.4 9:12 152 641 47 129
222 1534 Joe Schumacher M 56 M5059 Windsor CO 28:34.4 28:03.4 9:12 153 641 9 99
223 476 Bailey Brachtenbach M 19 M1319 Windsor CO 28:35.3 27:27.2 9:13 154 641 28 58
224 786 Brandon Fritz M 27 M2029 Greeley CO 28:36.8 27:43.9 9:13 155 641 48 129
225 1981 Lauryn Uyemura F 12 F0112 Kersey CO 28:38.2 28:32.1 9:14 56 818 2 58
226 395 Nate Bailey F 24 F2029 Eaton CO 28:38.9 27:22.5 9:14 57 818 21 179
227 2115 Raceday Registration 28:40.8 27:58.3 9:14
228 1628 Alex Steller F 24 F2029 Greeley CO 28:44.0 28:37.4 9:15 58 818 22 179
229 1590 Bryce Smith M 16 M1319 Eaton CO 28:44.8 28:31.8 9:16 156 641 29 58
230 1564 Shayne Sevestre M 17 M1319 Greeley CO 28:46.8 28:34.7 9:16 157 641 30 58
231 642 Mike Deeter M 47 M4049 Windsor CO 28:47.2 28:17.5 9:16 158 641 19 93
232 1930 Lincoln Severt M 16 M1319 Lasalle CO 28:49.1 27:55.4 9:17 159 641 31 58
233 655 Jen Dixon F 41 F4049 Fort Collins CO 28:54.5 28:44.4 9:19 59 818 5 118
234 573 Nikki Chubb F 30 F3039 Eaton CO 28:55.4 28:31.2 9:19 60 818 12 172
235 705 Jd Farias M 47 M4049 Windsor CO 28:56.1 28:30.2 9:19 160 641 20 93
236 466 Kevin Bothwell M 55 M5059 Windsor CO 28:56.7 28:19.6 9:19 161